sensor_id;sensor_type;location;lat;lon;timestamp;temperature;humidity
52181;DHT22;38158;53.338;6.514;2024-03-25T00:01:01;5.90;99.90
52181;DHT22;38158;53.338;6.514;2024-03-25T00:03:26;6.20;99.90
52181;DHT22;38158;53.338;6.514;2024-03-25T00:05:52;5.90;99.90
52181;DHT22;38158;53.338;6.514;2024-03-25T00:08:18;6.70;99.90
52181;DHT22;38158;53.338;6.514;2024-03-25T00:10:43;6.10;99.90
52181;DHT22;38158;53.338;6.514;2024-03-25T00:13:09;6.00;99.90
52181;DHT22;38158;53.338;6.514;2024-03-25T00:15:36;6.30;99.90
52181;DHT22;38158;53.338;6.514;2024-03-25T00:18:04;6.50;99.90
52181;DHT22;38158;53.338;6.514;2024-03-25T00:20:29;5.90;99.90
52181;DHT22;38158;53.338;6.514;2024-03-25T00:22:55;6.10;99.90
52181;DHT22;38158;53.338;6.514;2024-03-25T00:25:21;6.40;99.90
52181;DHT22;38158;53.338;6.514;2024-03-25T00:27:46;6.60;99.90
52181;DHT22;38158;53.338;6.514;2024-03-25T00:30:13;6.20;99.90
52181;DHT22;38158;53.338;6.514;2024-03-25T00:32:39;6.50;99.90
52181;DHT22;38158;53.338;6.514;2024-03-25T00:35:05;6.00;99.90
52181;DHT22;38158;53.338;6.514;2024-03-25T00:37:31;6.00;99.90
52181;DHT22;38158;53.338;6.514;2024-03-25T00:39:57;6.10;99.90
52181;DHT22;38158;53.338;6.514;2024-03-25T00:42:23;6.70;99.90
52181;DHT22;38158;53.338;6.514;2024-03-25T00:44:48;6.70;99.90
52181;DHT22;38158;53.338;6.514;2024-03-25T00:47:14;6.10;99.90
52181;DHT22;38158;53.338;6.514;2024-03-25T00:49:40;6.20;99.90
52181;DHT22;38158;53.338;6.514;2024-03-25T00:52:06;6.10;99.90
52181;DHT22;38158;53.338;6.514;2024-03-25T00:54:31;6.90;99.90
52181;DHT22;38158;53.338;6.514;2024-03-25T00:56:57;6.30;99.90
52181;DHT22;38158;53.338;6.514;2024-03-25T00:59:23;6.50;99.90
52181;DHT22;38158;53.338;6.514;2024-03-25T01:01:48;6.10;99.90
52181;DHT22;38158;53.338;6.514;2024-03-25T01:04:14;6.70;99.90
52181;DHT22;38158;53.338;6.514;2024-03-25T01:06:40;6.20;99.90
52181;DHT22;38158;53.338;6.514;2024-03-25T01:09:05;7.50;99.90
52181;DHT22;38158;53.338;6.514;2024-03-25T01:11:33;6.20;99.90
52181;DHT22;38158;53.338;6.514;2024-03-25T01:13:58;6.00;99.90
52181;DHT22;38158;53.338;6.514;2024-03-25T01:16:24;6.00;99.90
52181;DHT22;38158;53.338;6.514;2024-03-25T01:18:50;6.10;99.90
52181;DHT22;38158;53.338;6.514;2024-03-25T01:21:15;6.00;99.90
52181;DHT22;38158;53.338;6.514;2024-03-25T01:23:41;6.20;99.90
52181;DHT22;38158;53.338;6.514;2024-03-25T01:26:08;6.60;99.90
52181;DHT22;38158;53.338;6.514;2024-03-25T01:28:33;6.00;99.90
52181;DHT22;38158;53.338;6.514;2024-03-25T01:31:00;7.10;99.90
52181;DHT22;38158;53.338;6.514;2024-03-25T01:33:25;6.70;99.90
52181;DHT22;38158;53.338;6.514;2024-03-25T01:35:51;6.80;99.90
52181;DHT22;38158;53.338;6.514;2024-03-25T01:38:17;6.70;99.90
52181;DHT22;38158;53.338;6.514;2024-03-25T01:40:43;6.00;99.90
52181;DHT22;38158;53.338;6.514;2024-03-25T01:43:10;6.30;99.90
52181;DHT22;38158;53.338;6.514;2024-03-25T01:45:36;5.90;99.90
52181;DHT22;38158;53.338;6.514;2024-03-25T01:48:04;6.00;99.90
52181;DHT22;38158;53.338;6.514;2024-03-25T01:50:34;6.00;99.90
52181;DHT22;38158;53.338;6.514;2024-03-25T01:53:00;6.80;99.90
52181;DHT22;38158;53.338;6.514;2024-03-25T01:55:28;6.40;99.90
52181;DHT22;38158;53.338;6.514;2024-03-25T01:57:54;6.00;99.90
52181;DHT22;38158;53.338;6.514;2024-03-25T02:00:20;6.00;99.90
52181;DHT22;38158;53.338;6.514;2024-03-25T02:02:46;6.00;99.90
52181;DHT22;38158;53.338;6.514;2024-03-25T02:05:15;6.00;99.90
52181;DHT22;38158;53.338;6.514;2024-03-25T02:07:41;6.00;99.90
52181;DHT22;38158;53.338;6.514;2024-03-25T02:10:07;6.20;99.90
52181;DHT22;38158;53.338;6.514;2024-03-25T02:12:44;6.00;99.90
52181;DHT22;38158;53.338;6.514;2024-03-25T02:15:11;6.00;99.90
52181;DHT22;38158;53.338;6.514;2024-03-25T02:17:37;6.00;99.90
52181;DHT22;38158;53.338;6.514;2024-03-25T02:20:04;6.20;99.90
52181;DHT22;38158;53.338;6.514;2024-03-25T02:22:36;6.00;99.90
52181;DHT22;38158;53.338;6.514;2024-03-25T02:25:06;6.10;99.90
52181;DHT22;38158;53.338;6.514;2024-03-25T02:27:33;6.00;99.90
52181;DHT22;38158;53.338;6.514;2024-03-25T02:30:07;6.40;99.90
52181;DHT22;38158;53.338;6.514;2024-03-25T02:32:34;6.00;99.90
52181;DHT22;38158;53.338;6.514;2024-03-25T02:35:02;6.10;99.90
52181;DHT22;38158;53.338;6.514;2024-03-25T02:37:29;6.00;99.90
52181;DHT22;38158;53.338;6.514;2024-03-25T02:39:57;6.00;99.90
52181;DHT22;38158;53.338;6.514;2024-03-25T02:42:24;6.00;99.90
52181;DHT22;38158;53.338;6.514;2024-03-25T02:44:53;7.20;99.90
52181;DHT22;38158;53.338;6.514;2024-03-25T02:47:18;5.90;99.90
52181;DHT22;38158;53.338;6.514;2024-03-25T02:49:45;5.90;99.90
52181;DHT22;38158;53.338;6.514;2024-03-25T02:52:11;6.20;99.90
52181;DHT22;38158;53.338;6.514;2024-03-25T02:54:37;5.90;99.90
52181;DHT22;38158;53.338;6.514;2024-03-25T02:57:02;5.90;99.90
52181;DHT22;38158;53.338;6.514;2024-03-25T02:59:28;5.80;99.90
52181;DHT22;38158;53.338;6.514;2024-03-25T03:01:54;6.50;99.90
52181;DHT22;38158;53.338;6.514;2024-03-25T03:04:20;6.10;99.90
52181;DHT22;38158;53.338;6.514;2024-03-25T03:06:45;5.90;99.90
52181;DHT22;38158;53.338;6.514;2024-03-25T03:09:11;6.10;99.90
52181;DHT22;38158;53.338;6.514;2024-03-25T03:11:36;6.40;99.90
52181;DHT22;38158;53.338;6.514;2024-03-25T03:14:02;5.90;99.90
52181;DHT22;38158;53.338;6.514;2024-03-25T03:16:28;5.90;99.90
52181;DHT22;38158;53.338;6.514;2024-03-25T03:18:54;6.00;99.90
52181;DHT22;38158;53.338;6.514;2024-03-25T03:21:20;6.40;99.90
52181;DHT22;38158;53.338;6.514;2024-03-25T03:23:46;6.00;99.90
52181;DHT22;38158;53.338;6.514;2024-03-25T03:26:12;6.00;99.90
52181;DHT22;38158;53.338;6.514;2024-03-25T03:28:39;6.30;99.90
52181;DHT22;38158;53.338;6.514;2024-03-25T03:31:05;6.00;99.90
52181;DHT22;38158;53.338;6.514;2024-03-25T03:33:31;6.60;99.90
52181;DHT22;38158;53.338;6.514;2024-03-25T03:35:57;6.00;99.90
52181;DHT22;38158;53.338;6.514;2024-03-25T03:38:22;6.90;99.90
52181;DHT22;38158;53.338;6.514;2024-03-25T03:40:58;7.30;99.90
52181;DHT22;38158;53.338;6.514;2024-03-25T03:43:24;6.50;99.90
52181;DHT22;38158;53.338;6.514;2024-03-25T03:45:50;6.00;99.90
52181;DHT22;38158;53.338;6.514;2024-03-25T03:48:16;5.80;99.90
52181;DHT22;38158;53.338;6.514;2024-03-25T03:50:42;6.90;99.90
52181;DHT22;38158;53.338;6.514;2024-03-25T03:53:08;5.80;99.90
52181;DHT22;38158;53.338;6.514;2024-03-25T03:55:33;5.80;99.90
52181;DHT22;38158;53.338;6.514;2024-03-25T03:58:02;6.60;99.90
52181;DHT22;38158;53.338;6.514;2024-03-25T04:00:28;5.80;99.90
52181;DHT22;38158;53.338;6.514;2024-03-25T04:02:54;6.80;99.90
52181;DHT22;38158;53.338;6.514;2024-03-25T04:05:20;5.80;99.90
52181;DHT22;38158;53.338;6.514;2024-03-25T04:07:45;5.80;99.90
52181;DHT22;38158;53.338;6.514;2024-03-25T04:10:11;6.00;99.90
52181;DHT22;38158;53.338;6.514;2024-03-25T04:12:37;5.80;99.90
52181;DHT22;38158;53.338;6.514;2024-03-25T04:15:04;5.80;99.90
52181;DHT22;38158;53.338;6.514;2024-03-25T04:17:30;5.80;99.90
52181;DHT22;38158;53.338;6.514;2024-03-25T04:19:59;5.90;99.90
52181;DHT22;38158;53.338;6.514;2024-03-25T04:22:26;5.80;99.90
52181;DHT22;38158;53.338;6.514;2024-03-25T04:24:51;6.20;99.90
52181;DHT22;38158;53.338;6.514;2024-03-25T04:27:17;6.00;99.90
52181;DHT22;38158;53.338;6.514;2024-03-25T04:29:46;5.80;99.90
52181;DHT22;38158;53.338;6.514;2024-03-25T04:32:12;5.80;99.90
52181;DHT22;38158;53.338;6.514;2024-03-25T04:34:37;6.60;99.90
52181;DHT22;38158;53.338;6.514;2024-03-25T04:37:03;5.80;99.90
52181;DHT22;38158;53.338;6.514;2024-03-25T04:39:30;5.90;99.90
52181;DHT22;38158;53.338;6.514;2024-03-25T04:41:56;5.90;99.90
52181;DHT22;38158;53.338;6.514;2024-03-25T04:44:22;5.90;99.90
52181;DHT22;38158;53.338;6.514;2024-03-25T04:46:47;6.40;99.90
52181;DHT22;38158;53.338;6.514;2024-03-25T04:49:13;5.90;99.90
52181;DHT22;38158;53.338;6.514;2024-03-25T04:51:39;5.90;99.90
52181;DHT22;38158;53.338;6.514;2024-03-25T04:54:05;5.90;99.90
52181;DHT22;38158;53.338;6.514;2024-03-25T04:56:30;5.90;99.90
52181;DHT22;38158;53.338;6.514;2024-03-25T04:58:57;6.50;99.90
52181;DHT22;38158;53.338;6.514;2024-03-25T05:01:27;7.30;99.90
52181;DHT22;38158;53.338;6.514;2024-03-25T05:03:53;5.80;99.90
52181;DHT22;38158;53.338;6.514;2024-03-25T05:06:19;5.80;99.90
52181;DHT22;38158;53.338;6.514;2024-03-25T05:08:44;5.80;99.90
52181;DHT22;38158;53.338;6.514;2024-03-25T05:11:10;5.80;99.90
52181;DHT22;38158;53.338;6.514;2024-03-25T05:13:36;6.50;99.90
52181;DHT22;38158;53.338;6.514;2024-03-25T05:16:02;5.60;99.90
52181;DHT22;38158;53.338;6.514;2024-03-25T05:18:27;5.60;99.90
52181;DHT22;38158;53.338;6.514;2024-03-25T05:20:53;7.20;99.90
52181;DHT22;38158;53.338;6.514;2024-03-25T05:23:19;5.50;99.90
52181;DHT22;38158;53.338;6.514;2024-03-25T05:25:44;5.60;99.90
52181;DHT22;38158;53.338;6.514;2024-03-25T05:28:10;5.80;99.90
52181;DHT22;38158;53.338;6.514;2024-03-25T05:30:35;5.30;99.90
52181;DHT22;38158;53.338;6.514;2024-03-25T05:33:01;5.30;99.90
52181;DHT22;38158;53.338;6.514;2024-03-25T05:35:27;5.20;99.90
52181;DHT22;38158;53.338;6.514;2024-03-25T05:37:53;6.20;99.90
52181;DHT22;38158;53.338;6.514;2024-03-25T05:40:19;5.60;99.90
52181;DHT22;38158;53.338;6.514;2024-03-25T05:42:45;5.20;99.90
52181;DHT22;38158;53.338;6.514;2024-03-25T05:45:11;5.90;99.90
52181;DHT22;38158;53.338;6.514;2024-03-25T05:47:37;6.00;99.90
52181;DHT22;38158;53.338;6.514;2024-03-25T05:50:03;5.30;99.90
52181;DHT22;38158;53.338;6.514;2024-03-25T05:52:31;5.10;99.90
52181;DHT22;38158;53.338;6.514;2024-03-25T05:54:57;5.10;99.90
52181;DHT22;38158;53.338;6.514;2024-03-25T05:57:22;5.20;99.90
52181;DHT22;38158;53.338;6.514;2024-03-25T05:59:48;5.60;99.90
52181;DHT22;38158;53.338;6.514;2024-03-25T06:02:14;5.20;99.90
52181;DHT22;38158;53.338;6.514;2024-03-25T06:04:39;5.20;99.90
52181;DHT22;38158;53.338;6.514;2024-03-25T06:07:05;5.20;99.90
52181;DHT22;38158;53.338;6.514;2024-03-25T06:09:31;5.20;99.90
52181;DHT22;38158;53.338;6.514;2024-03-25T06:11:56;5.70;99.90
52181;DHT22;38158;53.338;6.514;2024-03-25T06:14:22;5.20;99.90
52181;DHT22;38158;53.338;6.514;2024-03-25T06:16:47;5.90;99.90
52181;DHT22;38158;53.338;6.514;2024-03-25T06:19:13;5.20;99.90
52181;DHT22;38158;53.338;6.514;2024-03-25T06:21:38;5.20;99.90
52181;DHT22;38158;53.338;6.514;2024-03-25T06:24:05;6.70;99.90
52181;DHT22;38158;53.338;6.514;2024-03-25T06:26:30;5.30;99.90
52181;DHT22;38158;53.338;6.514;2024-03-25T06:28:56;5.30;99.90
52181;DHT22;38158;53.338;6.514;2024-03-25T06:31:21;5.40;99.90
52181;DHT22;38158;53.338;6.514;2024-03-25T06:34:06;5.40;99.90
52181;DHT22;38158;53.338;6.514;2024-03-25T06:36:49;5.90;99.90
52181;DHT22;38158;53.338;6.514;2024-03-25T06:39:15;5.40;99.90
52181;DHT22;38158;53.338;6.514;2024-03-25T06:41:41;5.50;99.90
52181;DHT22;38158;53.338;6.514;2024-03-25T06:44:06;5.80;99.90
52181;DHT22;38158;53.338;6.514;2024-03-25T06:46:32;5.50;99.90
52181;DHT22;38158;53.338;6.514;2024-03-25T06:48:58;5.80;99.90
52181;DHT22;38158;53.338;6.514;2024-03-25T06:51:24;5.60;99.90
52181;DHT22;38158;53.338;6.514;2024-03-25T06:53:50;6.80;99.90
52181;DHT22;38158;53.338;6.514;2024-03-25T06:56:16;6.40;99.90
52181;DHT22;38158;53.338;6.514;2024-03-25T06:58:42;5.80;99.90
52181;DHT22;38158;53.338;6.514;2024-03-25T07:01:09;5.90;99.90
52181;DHT22;38158;53.338;6.514;2024-03-25T07:03:38;6.00;99.90
52181;DHT22;38158;53.338;6.514;2024-03-25T07:06:04;6.00;99.90
52181;DHT22;38158;53.338;6.514;2024-03-25T07:08:29;6.00;99.90
52181;DHT22;38158;53.338;6.514;2024-03-25T07:10:58;6.60;99.90
52181;DHT22;38158;53.338;6.514;2024-03-25T07:13:24;6.10;99.90
52181;DHT22;38158;53.338;6.514;2024-03-25T07:15:50;6.90;99.90
52181;DHT22;38158;53.338;6.514;2024-03-25T07:18:16;6.30;99.90
52181;DHT22;38158;53.338;6.514;2024-03-25T07:20:43;6.30;99.90
52181;DHT22;38158;53.338;6.514;2024-03-25T07:23:09;6.40;99.90
52181;DHT22;38158;53.338;6.514;2024-03-25T07:25:35;6.30;99.90
52181;DHT22;38158;53.338;6.514;2024-03-25T07:28:01;6.30;99.90
52181;DHT22;38158;53.338;6.514;2024-03-25T07:30:27;6.50;99.90
52181;DHT22;38158;53.338;6.514;2024-03-25T07:32:58;6.60;99.90
52181;DHT22;38158;53.338;6.514;2024-03-25T07:35:24;6.40;99.90
52181;DHT22;38158;53.338;6.514;2024-03-25T07:37:50;6.50;99.90
52181;DHT22;38158;53.338;6.514;2024-03-25T07:40:19;6.90;99.90
52181;DHT22;38158;53.338;6.514;2024-03-25T07:42:45;6.90;99.90
52181;DHT22;38158;53.338;6.514;2024-03-25T07:45:11;6.90;99.90
52181;DHT22;38158;53.338;6.514;2024-03-25T07:47:36;6.70;99.90
52181;DHT22;38158;53.338;6.514;2024-03-25T07:50:03;6.80;99.90
52181;DHT22;38158;53.338;6.514;2024-03-25T07:52:29;6.80;99.90
52181;DHT22;38158;53.338;6.514;2024-03-25T07:54:55;7.00;99.90
52181;DHT22;38158;53.338;6.514;2024-03-25T07:57:21;7.00;99.90
52181;DHT22;38158;53.338;6.514;2024-03-25T07:59:47;7.00;99.90
52181;DHT22;38158;53.338;6.514;2024-03-25T08:02:13;7.20;99.90
52181;DHT22;38158;53.338;6.514;2024-03-25T08:04:38;7.10;99.90
52181;DHT22;38158;53.338;6.514;2024-03-25T08:07:04;7.50;99.90
52181;DHT22;38158;53.338;6.514;2024-03-25T08:09:30;7.20;99.90
52181;DHT22;38158;53.338;6.514;2024-03-25T08:11:56;7.30;99.90
52181;DHT22;38158;53.338;6.514;2024-03-25T08:14:22;7.40;99.90
52181;DHT22;38158;53.338;6.514;2024-03-25T08:16:48;7.50;99.90
52181;DHT22;38158;53.338;6.514;2024-03-25T08:19:14;7.60;99.90
52181;DHT22;38158;53.338;6.514;2024-03-25T08:21:40;7.70;99.90
52181;DHT22;38158;53.338;6.514;2024-03-25T08:24:05;7.70;99.90
52181;DHT22;38158;53.338;6.514;2024-03-25T08:26:31;7.80;99.90
52181;DHT22;38158;53.338;6.514;2024-03-25T08:28:57;7.80;99.90
52181;DHT22;38158;53.338;6.514;2024-03-25T08:31:23;7.90;99.90
52181;DHT22;38158;53.338;6.514;2024-03-25T08:33:48;8.20;99.90
52181;DHT22;38158;53.338;6.514;2024-03-25T08:36:14;8.00;99.90
52181;DHT22;38158;53.338;6.514;2024-03-25T08:38:40;8.10;99.90
52181;DHT22;38158;53.338;6.514;2024-03-25T08:41:05;8.00;99.90
52181;DHT22;38158;53.338;6.514;2024-03-25T08:43:31;8.10;99.90
52181;DHT22;38158;53.338;6.514;2024-03-25T08:45:57;8.10;99.90
52181;DHT22;38158;53.338;6.514;2024-03-25T08:48:23;8.20;99.90
52181;DHT22;38158;53.338;6.514;2024-03-25T08:50:49;8.20;99.90
52181;DHT22;38158;53.338;6.514;2024-03-25T08:53:15;8.10;99.90
52181;DHT22;38158;53.338;6.514;2024-03-25T08:55:47;8.10;99.90
52181;DHT22;38158;53.338;6.514;2024-03-25T08:58:13;8.10;99.90
52181;DHT22;38158;53.338;6.514;2024-03-25T09:00:39;7.80;99.90
52181;DHT22;38158;53.338;6.514;2024-03-25T09:03:05;7.90;99.90
52181;DHT22;38158;53.338;6.514;2024-03-25T09:05:30;7.90;99.90
52181;DHT22;38158;53.338;6.514;2024-03-25T09:07:56;8.10;99.90
52181;DHT22;38158;53.338;6.514;2024-03-25T09:10:24;8.10;99.90
52181;DHT22;38158;53.338;6.514;2024-03-25T09:13:09;8.40;99.90
52181;DHT22;38158;53.338;6.514;2024-03-25T09:15:34;8.70;99.90
52181;DHT22;38158;53.338;6.514;2024-03-25T09:18:00;8.50;99.90
52181;DHT22;38158;53.338;6.514;2024-03-25T09:20:26;8.60;99.90
52181;DHT22;38158;53.338;6.514;2024-03-25T09:22:52;8.70;99.90
52181;DHT22;38158;53.338;6.514;2024-03-25T09:25:18;8.80;99.90
52181;DHT22;38158;53.338;6.514;2024-03-25T09:27:48;8.90;99.90
52181;DHT22;38158;53.338;6.514;2024-03-25T09:30:14;9.00;99.90
52181;DHT22;38158;53.338;6.514;2024-03-25T09:32:40;9.10;99.90
52181;DHT22;38158;53.338;6.514;2024-03-25T09:35:07;9.20;99.90
52181;DHT22;38158;53.338;6.514;2024-03-25T09:37:33;9.30;99.90
52181;DHT22;38158;53.338;6.514;2024-03-25T09:39:58;9.30;99.90
52181;DHT22;38158;53.338;6.514;2024-03-25T09:42:34;9.30;99.90
52181;DHT22;38158;53.338;6.514;2024-03-25T09:45:01;9.20;99.90
52181;DHT22;38158;53.338;6.514;2024-03-25T09:47:28;9.10;99.90
52181;DHT22;38158;53.338;6.514;2024-03-25T09:49:58;8.90;99.90
52181;DHT22;38158;53.338;6.514;2024-03-25T09:52:24;8.60;99.90
52181;DHT22;38158;53.338;6.514;2024-03-25T09:54:50;8.30;99.90
52181;DHT22;38158;53.338;6.514;2024-03-25T09:57:16;8.20;99.90
52181;DHT22;38158;53.338;6.514;2024-03-25T09:59:42;8.00;99.90
52181;DHT22;38158;53.338;6.514;2024-03-25T10:02:10;7.80;99.90
52181;DHT22;38158;53.338;6.514;2024-03-25T10:04:44;7.70;99.90
52181;DHT22;38158;53.338;6.514;2024-03-25T10:07:10;7.70;99.90
52181;DHT22;38158;53.338;6.514;2024-03-25T10:09:36;7.60;99.90
52181;DHT22;38158;53.338;6.514;2024-03-25T10:12:02;9.20;99.90
52181;DHT22;38158;53.338;6.514;2024-03-25T10:14:28;7.60;99.90
52181;DHT22;38158;53.338;6.514;2024-03-25T10:16:53;7.60;99.90
52181;DHT22;38158;53.338;6.514;2024-03-25T10:19:19;7.70;99.90
52181;DHT22;38158;53.338;6.514;2024-03-25T10:21:44;7.90;99.90
52181;DHT22;38158;53.338;6.514;2024-03-25T10:24:10;8.00;99.90
52181;DHT22;38158;53.338;6.514;2024-03-25T10:26:36;8.20;99.90
52181;DHT22;38158;53.338;6.514;2024-03-25T10:29:06;8.50;99.90
52181;DHT22;38158;53.338;6.514;2024-03-25T10:31:33;8.60;99.90
52181;DHT22;38158;53.338;6.514;2024-03-25T10:33:59;8.90;99.90
52181;DHT22;38158;53.338;6.514;2024-03-25T10:36:25;8.70;99.90
52181;DHT22;38158;53.338;6.514;2024-03-25T10:39:02;8.80;99.90
52181;DHT22;38158;53.338;6.514;2024-03-25T10:41:32;8.80;99.90
52181;DHT22;38158;53.338;6.514;2024-03-25T10:44:02;8.80;99.90
52181;DHT22;38158;53.338;6.514;2024-03-25T10:46:32;8.80;99.90
52181;DHT22;38158;53.338;6.514;2024-03-25T10:51:39;9.00;99.90
52181;DHT22;38158;53.338;6.514;2024-03-25T10:54:06;9.10;99.90
52181;DHT22;38158;53.338;6.514;2024-03-25T10:56:33;9.50;99.90
52181;DHT22;38158;53.338;6.514;2024-03-25T10:59:00;9.80;99.90
52181;DHT22;38158;53.338;6.514;2024-03-25T11:01:27;9.90;99.90
52181;DHT22;38158;53.338;6.514;2024-03-25T11:03:52;9.90;99.90
52181;DHT22;38158;53.338;6.514;2024-03-25T11:06:18;9.90;99.90
52181;DHT22;38158;53.338;6.514;2024-03-25T11:08:44;9.80;99.90
52181;DHT22;38158;53.338;6.514;2024-03-25T11:11:15;9.80;99.90
52181;DHT22;38158;53.338;6.514;2024-03-25T11:13:42;10.00;99.90
52181;DHT22;38158;53.338;6.514;2024-03-25T11:16:07;10.10;99.90
52181;DHT22;38158;53.338;6.514;2024-03-25T11:18:35;10.20;99.90
52181;DHT22;38158;53.338;6.514;2024-03-25T11:21:05;10.10;99.90
52181;DHT22;38158;53.338;6.514;2024-03-25T11:23:41;9.90;99.90
52181;DHT22;38158;53.338;6.514;2024-03-25T11:26:25;10.00;99.90
52181;DHT22;38158;53.338;6.514;2024-03-25T11:28:53;9.60;99.90
52181;DHT22;38158;53.338;6.514;2024-03-25T11:31:20;9.50;99.90
52181;DHT22;38158;53.338;6.514;2024-03-25T11:33:47;9.30;99.90
52181;DHT22;38158;53.338;6.514;2024-03-25T11:36:13;9.40;99.90
52181;DHT22;38158;53.338;6.514;2024-03-25T11:38:40;9.60;99.90
52181;DHT22;38158;53.338;6.514;2024-03-25T11:41:07;9.70;99.90
52181;DHT22;38158;53.338;6.514;2024-03-25T11:43:33;9.90;99.90
52181;DHT22;38158;53.338;6.514;2024-03-25T11:45:59;10.10;99.90
52181;DHT22;38158;53.338;6.514;2024-03-25T11:48:26;10.20;99.90
52181;DHT22;38158;53.338;6.514;2024-03-25T11:50:51;10.20;99.90
52181;DHT22;38158;53.338;6.514;2024-03-25T11:53:17;9.90;99.90
52181;DHT22;38158;53.338;6.514;2024-03-25T11:55:47;9.80;99.90
52181;DHT22;38158;53.338;6.514;2024-03-25T11:58:13;9.80;99.90
52181;DHT22;38158;53.338;6.514;2024-03-25T12:00:46;9.80;99.90
52181;DHT22;38158;53.338;6.514;2024-03-25T12:03:15;9.80;99.90
52181;DHT22;38158;53.338;6.514;2024-03-25T12:05:44;10.00;99.90
52181;DHT22;38158;53.338;6.514;2024-03-25T12:08:10;10.10;99.90
52181;DHT22;38158;53.338;6.514;2024-03-25T12:10:38;10.30;99.90
52181;DHT22;38158;53.338;6.514;2024-03-25T12:13:23;10.40;99.90
52181;DHT22;38158;53.338;6.514;2024-03-25T12:15:53;10.60;99.90
52181;DHT22;38158;53.338;6.514;2024-03-25T12:18:19;10.60;99.90
52181;DHT22;38158;53.338;6.514;2024-03-25T12:20:45;10.60;99.90
52181;DHT22;38158;53.338;6.514;2024-03-25T12:23:11;10.40;99.90
52181;DHT22;38158;53.338;6.514;2024-03-25T12:25:37;10.40;99.90
52181;DHT22;38158;53.338;6.514;2024-03-25T12:28:08;10.20;99.90
52181;DHT22;38158;53.338;6.514;2024-03-25T12:30:50;10.10;99.90
52181;DHT22;38158;53.338;6.514;2024-03-25T12:33:16;9.90;99.90
52181;DHT22;38158;53.338;6.514;2024-03-25T12:35:45;9.80;99.90
52181;DHT22;38158;53.338;6.514;2024-03-25T12:38:30;9.70;99.90
52181;DHT22;38158;53.338;6.514;2024-03-25T12:41:16;9.80;99.90
52181;DHT22;38158;53.338;6.514;2024-03-25T12:43:44;9.80;99.90
52181;DHT22;38158;53.338;6.514;2024-03-25T12:46:09;9.80;99.90
52181;DHT22;38158;53.338;6.514;2024-03-25T12:48:38;9.90;99.90
52181;DHT22;38158;53.338;6.514;2024-03-25T12:51:11;10.10;99.90
52181;DHT22;38158;53.338;6.514;2024-03-25T12:53:36;10.40;99.90
52181;DHT22;38158;53.338;6.514;2024-03-25T12:56:02;10.20;99.90
52181;DHT22;38158;53.338;6.514;2024-03-25T12:58:28;10.20;99.90
52181;DHT22;38158;53.338;6.514;2024-03-25T13:00:54;10.30;99.90
52181;DHT22;38158;53.338;6.514;2024-03-25T13:03:21;10.40;99.90
52181;DHT22;38158;53.338;6.514;2024-03-25T13:05:47;10.40;99.90
52181;DHT22;38158;53.338;6.514;2024-03-25T13:08:12;10.40;99.90
52181;DHT22;38158;53.338;6.514;2024-03-25T13:10:38;10.50;99.90
52181;DHT22;38158;53.338;6.514;2024-03-25T13:13:04;10.60;99.90
52181;DHT22;38158;53.338;6.514;2024-03-25T13:15:31;10.70;99.90
52181;DHT22;38158;53.338;6.514;2024-03-25T13:17:57;10.80;99.90
52181;DHT22;38158;53.338;6.514;2024-03-25T13:20:23;10.80;99.90
52181;DHT22;38158;53.338;6.514;2024-03-25T13:22:49;10.90;99.90
52181;DHT22;38158;53.338;6.514;2024-03-25T13:25:15;10.90;99.90
52181;DHT22;38158;53.338;6.514;2024-03-25T13:27:41;10.90;99.90
52181;DHT22;38158;53.338;6.514;2024-03-25T13:30:07;10.90;99.90
52181;DHT22;38158;53.338;6.514;2024-03-25T13:32:33;10.90;99.90
52181;DHT22;38158;53.338;6.514;2024-03-25T13:34:58;10.80;99.90
52181;DHT22;38158;53.338;6.514;2024-03-25T13:37:24;10.60;99.90
52181;DHT22;38158;53.338;6.514;2024-03-25T13:39:50;10.60;99.90
52181;DHT22;38158;53.338;6.514;2024-03-25T13:42:16;10.40;99.90
52181;DHT22;38158;53.338;6.514;2024-03-25T13:44:42;10.30;99.90
52181;DHT22;38158;53.338;6.514;2024-03-25T13:47:08;10.30;99.90
52181;DHT22;38158;53.338;6.514;2024-03-25T13:49:36;10.30;99.90
52181;DHT22;38158;53.338;6.514;2024-03-25T13:52:03;10.20;99.90
52181;DHT22;38158;53.338;6.514;2024-03-25T13:54:30;10.20;99.90
52181;DHT22;38158;53.338;6.514;2024-03-25T13:56:59;10.30;99.90
52181;DHT22;38158;53.338;6.514;2024-03-25T13:59:25;10.20;99.90
52181;DHT22;38158;53.338;6.514;2024-03-25T14:01:51;10.30;99.90
52181;DHT22;38158;53.338;6.514;2024-03-25T14:04:17;10.50;99.90
52181;DHT22;38158;53.338;6.514;2024-03-25T14:06:44;10.40;99.90
52181;DHT22;38158;53.338;6.514;2024-03-25T14:09:22;10.40;99.90
52181;DHT22;38158;53.338;6.514;2024-03-25T14:11:48;10.40;99.90
52181;DHT22;38158;53.338;6.514;2024-03-25T14:14:13;10.40;99.90
52181;DHT22;38158;53.338;6.514;2024-03-25T14:16:39;10.40;99.90
52181;DHT22;38158;53.338;6.514;2024-03-25T14:19:05;10.50;99.90
52181;DHT22;38158;53.338;6.514;2024-03-25T14:21:30;10.60;99.90
52181;DHT22;38158;53.338;6.514;2024-03-25T14:23:56;10.60;99.90
52181;DHT22;38158;53.338;6.514;2024-03-25T14:26:21;10.80;99.90
52181;DHT22;38158;53.338;6.514;2024-03-25T14:28:47;10.90;99.90
52181;DHT22;38158;53.338;6.514;2024-03-25T14:31:13;10.90;99.90
52181;DHT22;38158;53.338;6.514;2024-03-25T14:33:38;10.80;99.90
52181;DHT22;38158;53.338;6.514;2024-03-25T14:36:04;10.80;99.90
52181;DHT22;38158;53.338;6.514;2024-03-25T14:38:30;10.70;99.90
52181;DHT22;38158;53.338;6.514;2024-03-25T14:40:55;10.60;99.90
52181;DHT22;38158;53.338;6.514;2024-03-25T14:43:21;10.50;99.90
52181;DHT22;38158;53.338;6.514;2024-03-25T14:45:47;10.50;99.90
52181;DHT22;38158;53.338;6.514;2024-03-25T14:48:13;10.40;99.90
52181;DHT22;38158;53.338;6.514;2024-03-25T14:50:38;10.40;99.90
52181;DHT22;38158;53.338;6.514;2024-03-25T14:53:04;10.50;99.90
52181;DHT22;38158;53.338;6.514;2024-03-25T14:55:30;10.70;99.90
52181;DHT22;38158;53.338;6.514;2024-03-25T14:57:56;10.60;99.90
52181;DHT22;38158;53.338;6.514;2024-03-25T15:00:22;10.60;99.90
52181;DHT22;38158;53.338;6.514;2024-03-25T15:02:50;10.60;99.90
52181;DHT22;38158;53.338;6.514;2024-03-25T15:05:16;10.60;99.90
52181;DHT22;38158;53.338;6.514;2024-03-25T15:07:42;10.70;99.90
52181;DHT22;38158;53.338;6.514;2024-03-25T15:10:08;10.70;99.90
52181;DHT22;38158;53.338;6.514;2024-03-25T15:12:33;10.80;99.90
52181;DHT22;38158;53.338;6.514;2024-03-25T15:15:02;10.90;99.90
52181;DHT22;38158;53.338;6.514;2024-03-25T15:17:32;10.90;99.90
52181;DHT22;38158;53.338;6.514;2024-03-25T15:19:57;10.90;99.90
52181;DHT22;38158;53.338;6.514;2024-03-25T15:22:23;11.00;99.90
52181;DHT22;38158;53.338;6.514;2024-03-25T15:24:49;11.00;99.90
52181;DHT22;38158;53.338;6.514;2024-03-25T15:27:15;10.90;99.90
52181;DHT22;38158;53.338;6.514;2024-03-25T15:29:40;10.90;99.90
52181;DHT22;38158;53.338;6.514;2024-03-25T15:32:06;10.80;99.90
52181;DHT22;38158;53.338;6.514;2024-03-25T15:34:32;10.80;99.90
52181;DHT22;38158;53.338;6.514;2024-03-25T15:36:57;10.80;99.90
52181;DHT22;38158;53.338;6.514;2024-03-25T15:39:23;10.80;99.90
52181;DHT22;38158;53.338;6.514;2024-03-25T15:41:49;10.80;99.90